Time;durP1;ratioP1;P1;durP2;ratioP2;P2;SDS_P1;SDS_P2;PMS_P1;PMS_P2;Temp;Humidity;BMP_temperature;BMP_pressure;BME280_temperature;BME280_humidity;BME280_pressure;Samples;Min_cycle;Max_cycle;Signal;HPM_P1;HPM_P2
2021/08/20 00:01:47;;;;;;;6.85;4.18;;;;;;;15.83;64.54;99852.72;10408743;28;20124;-64
2021/08/20 00:06:49;;;;;;;8.25;3.78;;;;;;;15.85;64.71;99847.31;10436635;28;20049;-64
2021/08/20 00:11:51;;;;;;;5.82;4.05;;;;;;;15.81;64.74;99849.34;10443207;28;20076;-64
2021/08/20 00:16:53;;;;;;;7.93;4.20;;;;;;;15.76;64.80;99846.25;10442857;28;20442;-65
2021/08/20 00:21:54;;;;;;;7.53;4.10;;;;;;;15.69;64.80;99847.72;10443745;28;20148;-64
2021/08/20 00:26:57;;;;;;;5.20;3.60;;;;;;;15.62;65.22;99850.97;10443210;28;20053;-64
2021/08/20 00:31:59;;;;;;;7.50;4.30;;;;;;;15.65;64.93;99853.38;10443104;28;20076;-64
2021/08/20 00:37:01;;;;;;;5.72;3.63;;;;;;;15.72;65.09;99854.53;10432473;28;20470;-64
2021/08/20 00:42:03;;;;;;;11.30;4.10;;;;;;;15.77;65.23;99857.66;10442600;28;20072;-64
2021/08/20 00:47:05;;;;;;;7.10;3.85;;;;;;;15.82;64.86;99853.66;10452944;28;20135;-65
2021/08/20 00:52:07;;;;;;;8.30;3.80;;;;;;;15.79;64.80;99845.16;10450814;28;20476;-64
2021/08/20 00:57:09;;;;;;;6.47;3.60;;;;;;;15.73;64.86;99845.69;10451761;28;20102;-65
2021/08/20 01:02:11;;;;;;;7.93;4.20;;;;;;;15.67;64.75;99847.03;10452962;28;20156;-64
2021/08/20 01:07:17;;;;;;;9.13;4.28;;;;;;;15.58;65.26;99844.28;10451389;28;20072;-64
2021/08/20 01:12:18;;;;;;;7.85;3.55;;;;;;;15.60;64.99;99847.63;10451374;28;20084;-65
2021/08/20 01:17:20;;;;;;;6.00;3.95;;;;;;;15.63;64.88;99848.25;10417481;28;20072;-65
2021/08/20 01:22:22;;;;;;;7.57;4.22;;;;;;;15.62;65.22;99838.63;10447919;28;20072;-64
2021/08/20 01:27:24;;;;;;;5.95;3.58;;;;;;;15.73;65.02;99843.03;10451124;28;20497;-64
2021/08/20 01:32:26;;;;;;;8.32;3.78;;;;;;;15.85;65.15;99834.13;10450026;28;20532;-64
2021/08/20 01:37:27;;;;;;;8.18;3.95;;;;;;;15.69;65.44;99833.72;10423665;28;20140;-65
2021/08/20 01:42:29;;;;;;;8.07;4.05;;;;;;;15.66;65.17;99826.03;10432747;28;20083;-64
2021/08/20 01:47:31;;;;;;;9.95;4.30;;;;;;;15.67;64.89;99836.47;10437531;28;20127;-65
2021/08/20 01:52:33;;;;;;;6.50;4.40;;;;;;;15.56;65.20;99839.16;10449061;28;20102;-64
2021/08/20 01:57:36;;;;;;;8.20;4.40;;;;;;;15.43;65.14;99838.41;10449776;28;20513;-65
2021/08/20 02:02:38;;;;;;;6.45;4.10;;;;;;;15.30;65.47;99843.03;10453441;28;20106;-65
2021/08/20 02:07:40;;;;;;;6.25;3.60;;;;;;;15.16;65.53;99841.47;10457190;28;20049;-64
2021/08/20 02:12:42;;;;;;;7.22;4.40;;;;;;;15.07;66.03;99847.50;10456599;28;20148;-64
2021/08/20 02:17:44;;;;;;;7.85;4.00;;;;;;;14.96;66.11;99849.31;10457176;28;20132;-64
2021/08/20 02:22:46;;;;;;;6.82;4.22;;;;;;;14.85;66.01;99847.53;10456217;28;20531;-64
2021/08/20 02:27:48;;;;;;;5.32;3.85;;;;;;;14.82;66.17;99852.19;10457253;28;20048;-64
2021/08/20 02:32:50;;;;;;;8.85;4.32;;;;;;;14.80;65.89;99844.41;10455187;28;20080;-64
2021/08/20 02:37:56;;;;;;;9.73;5.22;;;;;;;14.72;65.88;99852.06;10456562;28;20047;-65
2021/08/20 02:42:58;;;;;;;12.13;6.45;;;;;;;14.50;66.26;99847.63;10456501;28;20072;-64
2021/08/20 02:47:59;;;;;;;8.85;6.13;;;;;;;14.19;66.78;99853.53;10455521;28;20048;-65
2021/08/20 02:53:01;;;;;;;8.30;5.38;;;;;;;14.03;67.08;99846.91;10456132;28;20182;-65
2021/08/20 02:58:04;;;;;;;6.90;5.20;;;;;;;13.95;67.33;99851.91;10446623;28;20129;-65
2021/08/20 03:03:06;;;;;;;9.70;4.78;;;;;;;13.85;67.40;99849.13;10459726;28;20060;-65
2021/08/20 03:08:09;;;;;;;8.25;5.68;;;;;;;13.88;67.77;99841.00;10448688;28;20053;-64
2021/08/20 03:13:10;;;;;;;7.95;4.75;;;;;;;13.83;67.81;99844.94;10448161;28;20460;-64
2021/08/20 03:18:12;;;;;;;7.45;5.18;;;;;;;13.89;67.83;99842.69;10446778;28;20479;-65
2021/08/20 03:23:14;;;;;;;7.68;4.85;;;;;;;13.99;67.50;99843.66;10447125;28;20128;-65
2021/08/20 03:28:16;;;;;;;8.27;4.65;;;;;;;14.03;67.37;99828.50;10447668;28;20506;-65
2021/08/20 03:33:18;;;;;;;5.95;4.03;;;;;;;14.02;67.13;99838.19;10447203;28;20132;-65
2021/08/20 03:38:19;;;;;;;6.78;4.28;;;;;;;13.75;67.24;99840.25;10446693;28;20073;-65
2021/08/20 03:43:21;;;;;;;1999.90;999.90;;;;;;;13.56;67.78;99843.38;10446730;28;20116;-65
2021/08/20 03:48:23;;;;;;;9.20;4.50;;;;;;;13.68;67.36;99849.53;10445541;28;20482;-65
2021/08/20 03:53:25;;;;;;;51.72;47.25;;;;;;;13.66;67.35;99854.91;10437210;28;20048;-65
2021/08/20 03:58:26;;;;;;;8.65;4.90;;;;;;;13.66;67.26;99846.16;10444505;28;20140;-65
2021/08/20 04:03:28;;;;;;;5.43;2.60;;;;;;;13.52;67.55;99862.09;10444249;28;20501;-65
2021/08/20 04:08:30;;;;;;;2.95;1.90;;;;;;;13.61;67.51;99871.97;10443979;28;20057;-65
2021/08/20 04:13:32;;;;;;;4.88;3.40;;;;;;;13.76;67.24;99860.31;10445575;28;20760;-65
2021/08/20 04:18:33;;;;;;;6.57;3.63;;;;;;;13.77;67.11;99867.25;10415034;28;20072;-65
2021/08/20 04:23:36;;;;;;;6.13;3.30;;;;;;;13.82;66.63;99875.63;10405138;28;20136;-65
2021/08/20 04:28:38;;;;;;;4.28;2.80;;;;;;;13.70;67.01;99876.53;10422829;28;20083;-65
2021/08/20 04:33:40;;;;;;;11.93;10.07;;;;;;;13.71;67.00;99884.31;10444558;28;20040;-65
2021/08/20 04:38:43;;;;;;;6.47;3.10;;;;;;;13.78;67.38;99892.56;10444666;28;20131;-65
2021/08/20 04:43:44;;;;;;;1198.95;218.82;;;;;;;14.02;67.25;99897.81;10444439;28;20083;-65
2021/08/20 04:48:46;;;;;;;11.70;6.53;;;;;;;14.29;66.88;99896.59;10444103;28;20545;-65
2021/08/20 04:53:49;;;;;;;9.10;6.22;;;;;;;14.47;66.22;99900.44;10443908;28;20450;-65
2021/08/20 04:58:51;;;;;;;9.77;5.43;;;;;;;14.50;65.99;99910.78;10444381;28;20390;-65
2021/08/20 05:03:53;;;;;;;12.05;5.50;;;;;;;14.49;66.20;99922.25;10444087;28;20123;-65
2021/08/20 05:08:55;;;;;;;10.38;6.20;;;;;;;14.73;66.09;99929.25;10444657;28;20106;-65
2021/08/20 05:13:56;;;;;;;7.90;5.82;;;;;;;14.82;65.72;99932.00;10444088;28;20072;-65
2021/08/20 05:18:58;;;;;;;9.15;5.40;;;;;;;14.88;65.34;99926.25;10444870;28;20140;-65
2021/08/20 05:24:00;;;;;;;7.13;5.10;;;;;;;15.08;65.04;99935.25;10444912;28;20087;-65
2021/08/20 05:29:02;;;;;;;8.07;4.80;;;;;;;15.32;64.81;99928.06;10448740;28;20111;-65
2021/08/20 05:34:04;;;;;;;7.30;5.10;;;;;;;15.48;64.54;99939.06;10451593;28;20132;-64
2021/08/20 05:39:05;;;;;;;11.48;4.75;;;;;;;15.71;64.34;99937.25;10452126;28;20083;-65
2021/08/20 05:44:07;;;;;;;9.57;4.85;;;;;;;15.90;63.76;99938.25;10451004;28;20132;-65
2021/08/20 05:49:09;;;;;;;6.53;4.47;;;;;;;16.05;63.51;99931.75;10441317;28;20072;-64
2021/08/20 05:54:10;;;;;;;7.22;4.90;;;;;;;16.27;62.76;99943.13;10449375;28;20124;-65
2021/08/20 05:59:12;;;;;;;7.20;4.70;;;;;;;16.72;62.16;99936.69;10449625;28;20152;-64
2021/08/20 06:04:14;;;;;;;6.35;4.35;;;;;;;17.13;60.90;99943.69;10450316;28;20135;-64
2021/08/20 06:09:16;;;;;;;9.27;4.10;;;;;;;17.38;60.73;99948.56;10428071;28;20091;-65
2021/08/20 06:14:18;;;;;;;7.97;4.80;;;;;;;17.57;60.44;99943.31;10438162;28;20476;-64
2021/08/20 06:19:25;;;;;;;5.82;4.15;;;;;;;17.78;60.14;99950.19;10448366;28;20091;-65
2021/08/20 06:24:26;;;;;;;5.90;4.85;;;;;;;17.72;59.75;99940.16;10444613;28;20489;-66
2021/08/20 06:29:28;;;;;;;8.35;4.15;;;;;;;17.77;59.86;99942.41;10447494;28;20145;-64
2021/08/20 06:34:30;;;;;;;6.57;3.80;;;;;;;17.81;59.49;99947.25;10448000;28;20997;-65
2021/08/20 06:39:32;;;;;;;7.93;5.07;;;;;;;17.75;59.38;99947.00;10438841;28;20702;-65
2021/08/20 06:44:34;;;;;;;6.10;4.38;;;;;;;17.62;59.38;99943.75;10442108;28;20049;-64
2021/08/20 06:49:36;;;;;;;7.78;4.38;;;;;;;17.57;59.26;99945.97;10433837;28;20163;-65
2021/08/20 06:54:38;;;;;;;6.10;4.05;;;;;;;17.55;59.22;99950.53;10439113;28;20088;-64
2021/08/20 06:59:40;;;;;;;9.15;5.00;;;;;;;17.45;59.54;99953.19;10445185;28;20041;-64
2021/08/20 07:04:41;;;;;;;8.55;5.47;;;;;;;17.55;59.15;99947.91;10446928;28;20127;-65
2021/08/20 07:09:43;;;;;;;8.32;5.00;;;;;;;17.63;59.36;99946.25;10445774;28;20088;-65
2021/08/20 07:14:45;;;;;;;7.93;5.03;;;;;;;17.82;58.23;99951.59;10442783;28;20083;-65
2021/08/20 07:19:47;;;;;;;7.25;5.35;;;;;;;18.18;57.64;99951.91;10432335;28;20064;-66
2021/08/20 07:24:49;;;;;;;8.15;5.03;;;;;;;18.64;56.38;99957.34;10434067;28;20124;-66
2021/08/20 07:29:51;;;;;;;5.43;4.20;;;;;;;18.74;55.96;99955.50;10444398;28;20072;-65
2021/08/20 07:34:52;;;;;;;6.72;4.72;;;;;;;18.98;54.87;99947.91;10445088;28;20119;-65
2021/08/20 07:39:54;;;;;;;7.45;4.40;;;;;;;19.23;54.71;99952.59;10445368;28;20053;-65
2021/08/20 07:44:56;;;;;;;6.55;3.40;;;;;;;19.59;53.82;99955.31;10438103;28;20735;-64
2021/08/20 07:49:58;;;;;;;4.93;3.35;;;;;;;20.45;52.16;99947.59;10438376;28;20483;-65
2021/08/20 07:54:59;;;;;;;5.53;3.10;;;;;;;20.75;50.68;99949.84;10441389;28;20041;-65
2021/08/20 08:00:01;;;;;;;6.43;3.95;;;;;;;21.26;48.86;99956.13;10444449;28;20099;-66
2021/08/20 08:05:04;;;;;;;7.20;3.80;;;;;;;21.04;48.54;99947.72;10443562;28;20481;-66
2021/08/20 08:10:06;;;;;;;6.93;3.70;;;;;;;21.77;47.09;99943.53;10429222;28;20048;-65
2021/08/20 08:15:09;;;;;;;5.15;3.20;;;;;;;22.98;44.56;99950.78;10433189;28;20478;-65
2021/08/20 08:20:14;;;;;;;6.32;3.90;;;;;;;23.77;41.59;99948.81;10443853;28;20092;-66
2021/08/20 08:25:20;;;;;;;6.03;3.70;;;;;;;23.82;41.07;99953.66;10443351;28;20188;-65
2021/08/20 08:30:23;;;;;;;6.40;3.00;;;;;;;24.09;42.01;99956.66;10443520;28;20053;-65
2021/08/20 08:35:28;;;;;;;8.45;3.00;;;;;;;23.53;42.93;99967.66;10445065;28;20041;-62
2021/08/20 08:40:30;;;;;;;4.85;3.10;;;;;;;22.97;43.01;99973.09;10420007;28;21077;-61
2021/08/20 08:45:33;;;;;;;7.63;3.40;;;;;;;22.05;44.08;99993.91;10443128;28;20748;-61
2021/08/20 08:50:36;;;;;;;4.82;3.20;;;;;;;22.56;44.23;99980.28;10444156;28;20053;-61
2021/08/20 08:55:38;;;;;;;9.05;3.50;;;;;;;22.56;43.67;99981.13;10444984;28;20076;-60
2021/08/20 09:00:40;;;;;;;12.23;3.30;;;;;;;22.16;44.91;99986.44;10442886;28;20079;-60
2021/08/20 09:05:46;;;;;;;4.63;3.10;;;;;;;22.68;43.24;99985.13;10450515;28;20657;-60
2021/08/20 09:10:54;;;;;;;7.80;3.05;;;;;;;23.60;41.30;99981.09;10447208;28;20077;-60
2021/08/20 09:16:12;;;;;;;4.78;2.90;;;;;;;23.59;40.25;99977.63;10452317;28;20055;-60
2021/08/20 09:21:17;;;;;;;4.65;3.00;;;;;;;23.69;40.37;99978.25;10446856;28;20056;-60
2021/08/20 09:26:25;;;;;;;5.72;2.90;;;;;;;23.31;40.32;99979.84;10450886;28;20068;-60
2021/08/20 09:31:26;;;;;;;4.45;2.97;;;;;;;23.03;41.51;99981.28;10449250;28;20060;-61
2021/08/20 09:36:28;;;;;;;7.60;3.00;;;;;;;23.11;41.21;99973.25;10441365;28;20130;-60
2021/08/20 09:41:35;;;;;;;4.75;3.38;;;;;;;23.21;40.88;99970.38;10428481;28;20128;-60
2021/08/20 09:46:43;;;;;;;5.32;3.28;;;;;;;22.56;41.08;99985.63;10439804;28;20103;-60
2021/08/20 09:51:49;;;;;;;4.97;3.20;;;;;;;22.74;42.00;99980.16;10410294;28;20049;-60
2021/08/20 09:56:52;;;;;;;5.15;3.10;;;;;;;23.62;40.84;99977.25;10410512;28;20086;-59
2021/08/20 10:01:55;;;;;;;6.05;3.33;;;;;;;23.01;41.29;99983.28;10429450;28;20412;-60
2021/08/20 10:06:59;;;;;;;5.03;2.90;;;;;;;23.36;40.99;99987.34;10419313;28;20057;-60
2021/08/20 10:12:02;;;;;;;3.95;2.55;;;;;;;23.68;40.54;99984.56;10438373;28;20053;-61
2021/08/20 10:17:05;;;;;;;6.75;2.88;;;;;;;23.41;40.56;99980.50;10447184;28;20136;-61
2021/08/20 10:22:08;;;;;;;4.00;2.53;;;;;;;23.52;40.73;99976.66;10436872;28;20478;-60
2021/08/20 10:27:11;;;;;;;5.00;2.70;;;;;;;23.29;42.08;99973.00;10409202;28;20080;-60
2021/08/20 10:32:15;;;;;;;3.78;2.50;;;;;;;23.68;39.65;99970.38;10409767;28;20140;-61
2021/08/20 10:37:22;;;;;;;4.22;2.53;;;;;;;23.66;38.95;99962.56;10429667;28;20136;-60
2021/08/20 10:42:41;;;;;;;4.40;2.10;;;;;;;24.05;38.53;99967.84;10434776;28;20156;-60
2021/08/20 10:47:45;;;;;;;3.67;2.35;;;;;;;24.57;38.72;99954.63;10409131;28;20080;-60
2021/08/20 10:52:48;;;;;;;4.07;2.42;;;;;;;24.61;36.92;99947.91;10408963;28;20137;-60
2021/08/20 10:57:50;;;;;;;5.25;2.05;;;;;;;24.01;38.54;99955.84;10408153;28;20045;-60
2021/08/20 11:02:54;;;;;;;5.15;2.30;;;;;;;23.40;38.69;99945.97;10422811;28;20548;-60
2021/08/20 11:07:58;;;;;;;3.83;2.20;;;;;;;23.68;39.20;99957.88;10447873;28;20061;-60
2021/08/20 11:13:01;;;;;;;3.40;2.10;;;;;;;24.05;38.38;99954.50;10431795;28;20153;-60
2021/08/20 11:18:06;;;;;;;7.68;2.20;;;;;;;24.05;36.96;99957.16;10407161;28;20069;-60
2021/08/20 11:23:15;;;;;;;6.88;2.35;;;;;;;24.03;38.13;99952.00;10424785;28;20049;-60
2021/08/20 11:28:18;;;;;;;4.68;2.45;;;;;;;23.67;39.21;99966.91;10447783;28;20140;-60
2021/08/20 11:33:28;;;;;;;4.43;2.10;;;;;;;23.73;39.32;99960.88;10445930;28;20135;-60
2021/08/20 11:38:33;;;;;;;3.58;2.28;;;;;;;24.08;38.32;99955.00;10418750;28;20049;-60
2021/08/20 11:43:36;;;;;;;6.55;2.58;;;;;;;24.43;38.44;99955.41;10427424;28;20045;-60
2021/08/20 11:48:43;;;;;;;3.47;2.00;;;;;;;24.71;37.49;99951.16;10447068;28;20128;-60
2021/08/20 11:53:46;;;;;;;4.00;1.90;;;;;;;25.49;37.18;99946.97;10424163;28;20148;-60
2021/08/20 11:58:48;;;;;;;3.97;2.30;;;;;;;25.84;36.25;99945.34;10405784;28;20076;-60
2021/08/20 12:03:53;;;;;;;3.92;2.10;;;;;;;26.58;34.87;99936.03;10427849;28;20079;-60
2021/08/20 12:09:08;;;;;;;5.60;1.88;;;;;;;26.59;33.01;99934.97;10446164;28;20501;-61
2021/08/20 12:14:17;;;;;;;3.00;1.80;;;;;;;26.53;34.32;99930.34;10445864;28;20084;-60
2021/08/20 12:19:23;;;;;;;;;;;;;;;26.51;34.65;99932.41;10445713;28;20057;-60
2021/08/20 12:24:41;;;;;;;4.72;1.77;;;;;;;26.36;34.89;99943.25;10410599;28;19920;-61
2021/08/20 12:30:06;;;;;;;4.03;1.87;;;;;;;26.05;34.86;99940.03;10432878;28;20069;-61
2021/08/20 12:35:19;;;;;;;4.63;1.80;;;;;;;25.65;35.49;99944.09;10444739;28;20478;-61
2021/08/20 12:40:43;;;;;;;4.97;1.55;;;;;;;25.82;35.63;99940.19;10442696;28;20401;-60
2021/08/20 12:46:19;;;;;;;2.20;1.50;;;;;;;25.97;35.11;99944.69;10445834;28;20296;-60
2021/08/20 12:51:23;;;;;;;2.97;1.40;;;;;;;25.90;35.62;99944.56;10404260;28;20064;-60
2021/08/20 12:56:33;;;;;;;3.35;1.63;;;;;;;26.04;34.71;99943.72;10404173;28;20830;-60
2021/08/20 13:01:37;;;;;;;2.47;1.60;;;;;;;25.89;35.36;99943.75;10407329;28;20060;-60
2021/08/20 13:06:39;;;;;;;2.47;1.50;;;;;;;25.92;36.80;99944.41;10410642;28;20052;-61
2021/08/20 13:11:41;;;;;;;2.10;1.40;;;;;;;25.87;35.95;99939.63;10444932;28;20727;-60
2021/08/20 13:16:42;;;;;;;2.20;1.50;;;;;;;25.67;35.57;99936.69;10443904;28;20726;-60
2021/08/20 13:21:44;;;;;;;3.75;1.70;;;;;;;25.21;36.89;99945.13;10442544;28;20093;-60
2021/08/20 13:26:46;;;;;;;2.97;1.63;;;;;;;24.78;37.99;99949.44;10444857;28;20079;-60
2021/08/20 13:31:48;;;;;;;3.67;1.60;;;;;;;24.35;39.04;99948.28;10403042;28;20068;-61
2021/08/20 13:36:50;;;;;;;4.85;1.75;;;;;;;24.45;39.64;99948.06;10403403;28;20045;-61
2021/08/20 13:41:52;;;;;;;4.72;1.80;;;;;;;24.62;39.18;99954.91;10444233;28;20136;-60
2021/08/20 13:46:55;;;;;;;3.33;1.85;;;;;;;24.40;39.87;99953.09;10443829;28;20068;-61
2021/08/20 13:51:57;;;;;;;5.18;2.00;;;;;;;24.57;40.06;99957.31;10443192;28;20068;-60
2021/08/20 13:56:59;;;;;;;4.47;1.90;;;;;;;24.50;40.02;99961.69;10410502;28;20069;-60
2021/08/20 14:02:01;;;;;;;3.25;1.73;;;;;;;24.48;40.33;99958.38;10449548;28;20076;-60
2021/08/20 14:07:04;;;;;;;6.28;2.28;;;;;;;24.37;40.90;99961.47;10451240;28;20080;-60
2021/08/20 14:12:07;;;;;;;5.00;2.05;;;;;;;24.28;41.02;99963.38;10417387;28;20084;-60
2021/08/20 14:17:08;;;;;;;3.80;1.92;;;;;;;24.01;41.78;99975.38;10450897;28;20049;-60
2021/08/20 14:22:10;;;;;;;3.00;2.00;;;;;;;23.64;42.88;99977.91;10410135;28;20505;-60
2021/08/20 14:27:12;;;;;;;4.95;2.00;;;;;;;23.25;46.02;99990.38;10409438;28;20120;-60
2021/08/20 14:32:13;;;;;;;4.50;1.80;;;;;;;22.90;45.52;99994.31;10448807;28;20139;-60
2021/08/20 14:37:15;;;;;;;3.83;1.90;;;;;;;22.90;46.03;99991.66;10450298;28;20049;-60
2021/08/20 14:42:17;;;;;;;2.80;1.67;;;;;;;23.18;45.11;99994.75;10408688;28;20046;-63
2021/08/20 14:47:19;;;;;;;5.05;1.98;;;;;;;23.51;45.24;99995.50;10408040;28;20482;-61
2021/08/20 14:52:21;;;;;;;4.90;2.10;;;;;;;23.63;45.04;99988.78;10415803;28;20131;-60
2021/08/20 14:57:24;;;;;;;4.32;1.98;;;;;;;23.73;45.48;100000.09;10448611;28;20081;-60
2021/08/20 15:02:26;;;;;;;5.68;1.92;;;;;;;23.81;44.74;99997.38;10406944;28;20541;-61
2021/08/20 15:07:28;;;;;;;4.47;2.03;;;;;;;23.39;45.27;99995.03;10420508;28;20181;-61
2021/08/20 15:12:46;;;;;;;4.03;1.67;;;;;;;23.48;45.37;100002.03;10415261;28;20089;-60
2021/08/20 15:17:48;;;;;;;5.00;1.52;;;;;;;23.32;45.70;100008.22;10408819;28;20118;-61
2021/08/20 15:22:54;;;;;;;2.42;1.58;;;;;;;23.30;46.21;100012.06;10448342;28;20151;-60
2021/08/20 15:27:56;;;;;;;4.03;1.75;;;;;;;23.00;46.59;100016.31;10446050;28;20094;-60
2021/08/20 15:32:59;;;;;;;2.80;1.60;;;;;;;22.42;47.76;100012.94;10446367;28;20448;-60
2021/08/20 15:38:00;;;;;;;3.05;1.58;;;;;;;22.00;48.93;100007.69;10443118;28;20837;-60
2021/08/20 15:43:03;;;;;;;4.72;1.70;;;;;;;22.00;49.06;100022.81;10406085;28;20339;-60
2021/08/20 15:48:05;;;;;;;2.65;1.65;;;;;;;22.12;48.80;100016.22;10422497;28;20125;-60
2021/08/20 15:53:14;;;;;;;4.45;1.60;;;;;;;22.33;48.80;100016.59;10405807;28;20486;-60
2021/08/20 15:58:15;;;;;;;7.95;2.00;;;;;;;22.60;48.37;100011.78;10405362;28;20124;-60
2021/08/20 16:03:17;;;;;;;4.13;1.90;;;;;;;22.57;48.05;100016.63;10405725;28;20049;-60
2021/08/20 16:08:19;;;;;;;2.85;1.80;;;;;;;22.62;48.21;100014.28;10420682;28;20107;-60
2021/08/20 16:13:21;;;;;;;5.40;1.50;;;;;;;22.48;48.37;100018.44;10404425;28;20128;-60
2021/08/20 16:18:22;;;;;;;5.43;1.70;;;;;;;22.54;48.06;100022.25;10404999;28;20045;-60
2021/08/20 16:23:24;;;;;;;2.80;1.50;;;;;;;22.39;48.54;100027.41;10405245;28;20463;-60
2021/08/20 16:28:26;;;;;;;2.40;1.55;;;;;;;22.32;48.51;100021.09;10405469;28;20046;-60
2021/08/20 16:33:28;;;;;;;2.25;1.40;;;;;;;22.12;48.68;100008.22;10418211;28;20139;-60
2021/08/20 16:38:30;;;;;;;3.63;1.77;;;;;;;22.09;49.38;100017.38;10457557;28;20557;-60
2021/08/20 16:43:31;;;;;;;3.10;1.70;;;;;;;22.17;49.16;100014.72;10444198;28;20041;-60
2021/08/20 16:48:33;;;;;;;4.38;1.40;;;;;;;22.17;49.24;100013.91;10438032;28;20077;-61
2021/08/20 16:53:36;;;;;;;2.30;1.50;;;;;;;22.04;49.64;100017.03;10433851;28;20053;-60
2021/08/20 16:58:37;;;;;;;2.42;1.40;;;;;;;21.88;49.90;100012.44;10437051;28;20084;-61
2021/08/20 17:03:39;;;;;;;2.78;1.40;;;;;;;21.82;49.69;100017.63;10402619;28;20077;-61
2021/08/20 17:08:41;;;;;;;2.80;1.50;;;;;;;21.89;49.78;100015.94;10419448;28;20148;-60
2021/08/20 17:13:43;;;;;;;2.80;1.58;;;;;;;21.95;50.66;100015.31;10415231;28;20136;-60
2021/08/20 17:18:44;;;;;;;4.18;1.50;;;;;;;21.89;50.19;100016.78;10443505;28;20095;-61
2021/08/20 17:23:48;;;;;;;9.13;2.47;;;;;;;21.82;50.43;100025.59;10434561;28;20050;-60
2021/08/20 17:28:50;;;;;;;10.30;2.15;;;;;;;21.76;50.98;100020.91;10410422;28;20128;-60
2021/08/20 17:33:53;;;;;;;9.00;1.83;;;;;;;21.71;51.20;100023.22;10410654;28;20584;-60
2021/08/20 17:38:54;;;;;;;5.53;2.22;;;;;;;21.48;51.90;100016.78;10446697;28;20084;-61
2021/08/20 17:43:56;;;;;;;9.85;3.10;;;;;;;21.27;52.24;100025.16;10419007;28;20091;-61
2021/08/20 17:48:58;;;;;;;6.22;2.63;;;;;;;21.22;52.21;100026.59;10439999;28;20245;-61
2021/08/20 17:54:05;;;;;;;4.53;2.10;;;;;;;21.33;52.02;100019.22;10423358;28;20065;-60
2021/08/20 17:59:07;;;;;;;5.00;2.15;;;;;;;21.27;52.38;100029.63;10409227;28;20073;-60
2021/08/20 18:04:09;;;;;;;8.05;4.13;;;;;;;21.05;52.98;100026.47;10410032;28;20045;-61
2021/08/20 18:09:11;;;;;;;7.57;3.90;;;;;;;20.80;53.89;100024.66;10433690;28;20508;-60
2021/08/20 18:14:12;;;;;;;10.73;2.50;;;;;;;20.71;54.43;100028.22;10440354;28;20060;-60
2021/08/20 18:19:14;;;;;;;1861.07;590.03;;;;;;;20.77;54.43;100030.28;10411572;28;20506;-60
2021/08/20 18:24:17;;;;;;;12.63;2.40;;;;;;;20.55;53.99;100037.84;10452712;28;20196;-60
2021/08/20 18:29:22;;;;;;;6.25;2.47;;;;;;;20.29;55.09;100040.44;10473187;28;20140;-60
2021/08/20 18:34:24;;;;;;;9.48;2.35;;;;;;;20.26;55.30;100030.09;10405089;28;20550;-60
2021/08/20 18:39:25;;;;;;;12.30;2.63;;;;;;;20.13;55.83;100032.31;10420723;28;20080;-60
2021/08/20 18:44:27;;;;;;;6.22;2.10;;;;;;;19.74;56.90;100046.75;10447490;28;20077;-60
2021/08/20 18:49:29;;;;;;;7.55;2.13;;;;;;;19.67;57.54;100048.28;10447549;28;20135;-61
2021/08/20 18:54:33;;;;;;;6.15;2.58;;;;;;;19.65;57.96;100047.59;10414300;28;20163;-60
2021/08/20 18:59:35;;;;;;;8.50;2.80;;;;;;;19.36;58.30;100069.78;10439798;28;20168;-61
2021/08/20 19:04:37;;;;;;;8.68;2.60;;;;;;;19.26;58.59;100070.78;10447609;28;20211;-60
2021/08/20 19:09:38;;;;;;;9.25;2.58;;;;;;;18.99;59.60;100075.97;10438643;28;20081;-60
2021/08/20 19:14:40;;;;;;;8.45;3.22;;;;;;;18.90;60.16;100082.09;10408622;28;20140;-60
2021/08/20 19:19:42;;;;;;;8.30;3.25;;;;;;;18.65;60.71;100092.28;10435304;28;20464;-61
2021/08/20 19:24:43;;;;;;;4.55;2.90;;;;;;;18.67;60.70;100093.97;10446117;28;20131;-60
2021/08/20 19:29:45;;;;;;;9.98;2.42;;;;;;;18.70;60.74;100099.84;10445963;28;20112;-61
2021/08/20 19:34:47;;;;;;;12.38;3.30;;;;;;;18.63;60.44;100102.19;10411213;28;20084;-60
2021/08/20 19:39:49;;;;;;;7.60;2.70;;;;;;;18.47;60.83;100098.41;10417034;28;20132;-60
2021/08/20 19:44:50;;;;;;;7.10;3.60;;;;;;;18.51;61.13;100103.31;10421131;28;20107;-60
2021/08/20 19:49:52;;;;;;;11.27;2.80;;;;;;;18.47;60.87;100106.34;10444581;28;20084;-60
2021/08/20 19:54:54;;;;;;;5.75;2.00;;;;;;;18.36;60.90;100117.09;10412295;28;20152;-60
2021/08/20 19:59:57;;;;;;;6.47;2.10;;;;;;;18.34;61.38;100116.38;10404649;28;20381;-61
2021/08/20 20:04:59;;;;;;;7.13;2.45;;;;;;;18.15;61.33;100117.13;10427685;28;20085;-61
2021/08/20 20:10:03;;;;;;;7.95;2.45;;;;;;;18.08;61.77;100123.09;10444184;28;20132;-61
2021/08/20 20:15:07;;;;;;;4.80;2.10;;;;;;;18.01;61.78;100114.03;10446372;28;20085;-61
2021/08/20 20:20:10;;;;;;;3.95;2.20;;;;;;;17.89;61.92;100123.88;10444430;28;20049;-61
2021/08/20 20:25:12;;;;;;;6.78;2.50;;;;;;;17.78;62.10;100127.44;10427557;28;20132;-61
2021/08/20 20:30:14;;;;;;;5.75;2.22;;;;;;;17.64;62.05;100111.94;10415470;28;20124;-61
2021/08/20 20:35:16;;;;;;;7.63;2.30;;;;;;;17.47;62.31;100124.91;10444731;28;20487;-61
2021/08/20 20:40:18;;;;;;;6.05;2.50;;;;;;;17.45;62.64;100117.09;10433787;28;20088;-61
2021/08/20 20:45:20;;;;;;;5.75;2.53;;;;;;;17.43;62.55;100121.69;10440477;28;20126;-62
2021/08/20 20:50:21;;;;;;;5.10;2.45;;;;;;;17.06;63.45;100138.94;10433408;28;20092;-60
2021/08/20 20:55:23;;;;;;;6.22;2.30;;;;;;;17.04;63.21;100139.06;10403095;28;20477;-60
2021/08/20 21:00:25;;;;;;;5.72;2.60;;;;;;;17.07;63.52;100137.13;10421526;28;20382;-61
2021/08/20 21:05:28;;;;;;;6.00;2.70;;;;;;;17.01;63.58;100143.78;10453233;28;20056;-61
2021/08/20 21:10:30;;;;;;;5.35;2.45;;;;;;;17.02;63.42;100148.91;10449251;28;20049;-61
2021/08/20 21:15:31;;;;;;;5.18;2.58;;;;;;;16.96;63.46;100144.16;10447197;28;20077;-61
2021/08/20 21:20:33;;;;;;;5.28;2.70;;;;;;;16.89;63.15;100140.34;10423659;28;20483;-61
2021/08/20 21:25:35;;;;;;;4.55;2.88;;;;;;;16.80;63.62;100149.03;10453595;28;20099;-61
2021/08/20 21:30:37;;;;;;;6.78;2.88;;;;;;;16.72;63.41;100147.97;10451055;28;20151;-61
2021/08/20 21:35:38;;;;;;;6.47;2.25;;;;;;;16.66;63.42;100151.09;10451271;28;20135;-61
2021/08/20 21:40:40;;;;;;;4.68;2.30;;;;;;;16.70;63.94;100152.53;10450064;28;20164;-59
2021/08/20 21:45:42;;;;;;;9.07;2.38;;;;;;;16.71;63.63;100152.41;10438806;28;20136;-63
2021/08/20 21:50:43;;;;;;;3.85;2.25;;;;;;;16.58;63.65;100156.16;10436350;28;20147;-63
2021/08/20 21:55:45;;;;;;;5.93;2.70;;;;;;;16.42;63.85;100160.97;10441357;28;20509;-63
2021/08/20 22:00:48;;;;;;;4.50;2.20;;;;;;;16.18;64.67;100154.03;10470451;28;20045;-63
2021/08/20 22:05:50;;;;;;;5.13;2.50;;;;;;;16.27;64.79;100157.75;10441025;28;20060;-63
2021/08/20 22:10:52;;;;;;;7.32;2.60;;;;;;;16.30;64.32;100156.69;10448632;28;20103;-63
2021/08/20 22:15:54;;;;;;;8.50;2.90;;;;;;;15.92;64.81;100163.16;10420977;28;20147;-63
2021/08/20 22:20:59;;;;;;;4.55;2.60;;;;;;;15.93;64.77;100164.03;10443148;28;20132;-63
2021/08/20 22:26:01;;;;;;;5.43;2.60;;;;;;;15.98;65.15;100167.13;10437455;28;20075;-63
2021/08/20 22:31:03;;;;;;;8.75;2.70;;;;;;;16.03;64.66;100165.81;10443419;28;20174;-63
2021/08/20 22:36:05;;;;;;;6.05;2.70;;;;;;;15.79;64.90;100162.47;10448448;28;20049;-63
2021/08/20 22:41:07;;;;;;;5.43;2.78;;;;;;;15.69;65.02;100161.50;10449011;28;20145;-63
2021/08/20 22:46:09;;;;;;;5.35;2.30;;;;;;;15.64;65.26;100161.00;10441915;28;20084;-63
2021/08/20 22:51:11;;;;;;;5.97;2.72;;;;;;;15.51;65.26;100159.44;10447393;28;20076;-63
2021/08/20 22:56:12;;;;;;;4.35;2.60;;;;;;;15.47;65.25;100166.69;10447828;28;20134;-63
2021/08/20 23:01:14;;;;;;;5.35;2.55;;;;;;;15.52;65.13;100169.84;10446570;28;20092;-63
2021/08/20 23:06:19;;;;;;;4.05;2.38;;;;;;;15.59;64.56;100167.59;10442175;28;20053;-63
2021/08/20 23:11:20;;;;;;;5.53;2.33;;;;;;;15.57;64.65;100180.03;10442199;28;20173;-63
2021/08/20 23:16:22;;;;;;;29.02;5.10;;;;;;;15.54;65.02;100177.63;10421613;28;20084;-63
2021/08/20 23:21:24;;;;;;;7.45;3.85;;;;;;;15.49;64.93;100177.97;10444662;28;20123;-63